Time;durP1;ratioP1;P1;durP2;ratioP2;P2;SDS_P1;SDS_P2;PMS_P1;PMS_P2;Temp;Humidity;BMP_temperature;BMP_pressure;BME280_temperature;BME280_humidity;BME280_pressure;Samples;Min_cycle;Max_cycle;Signal;HPM_P1;HPM_P2
2023/08/16 00:01:45;;;;;;;3.93;3.63;;;;;;;;;;4946895;28;20674;-70
2023/08/16 00:04:13;;;;;;;4.43;2.93;;;;;;;;;;4936960;29;20621;-69
2023/08/16 00:06:43;;;;;;;3.73;3.53;;;;;;;;;;4954675;29;20632;-69
2023/08/16 00:09:14;;;;;;;8.00;3.60;;;;;;;;;;4955988;28;20938;-66
2023/08/16 00:11:42;;;;;;;3.67;3.20;;;;;;;;;;4957361;29;20644;-66
2023/08/16 00:14:10;;;;;;;3.97;3.67;;;;;;;;;;4959429;29;20726;-67
2023/08/16 00:16:40;;;;;;;3.57;3.30;;;;;;;;;;4953394;28;20695;-68
2023/08/16 00:19:08;;;;;;;5.37;4.13;;;;;;;;;;4954281;28;20653;-68
2023/08/16 00:21:36;;;;;;;4.07;3.70;;;;;;;;;;4954438;28;20639;-67
2023/08/16 00:24:06;;;;;;;3.90;3.50;;;;;;;;;;4955593;29;20642;-67
2023/08/16 00:26:34;;;;;;;3.60;3.30;;;;;;;;;;4958432;28;20631;-71
2023/08/16 00:29:03;;;;;;;4.43;4.10;;;;;;;;;;4956941;28;20631;-71
2023/08/16 00:31:32;;;;;;;6.07;4.13;;;;;;;;;;4952780;29;20636;-69
2023/08/16 00:34:01;;;;;;;4.17;3.80;;;;;;;;;;4957856;29;20718;-70
2023/08/16 00:36:29;;;;;;;4.50;4.10;;;;;;;;;;4954973;29;20655;-68
2023/08/16 00:38:57;;;;;;;6.37;4.03;;;;;;;;;;4960923;28;20718;-67
2023/08/16 00:41:26;;;;;;;3.80;3.50;;;;;;;;;;4956025;28;20697;-67
2023/08/16 00:43:54;;;;;;;4.47;4.07;;;;;;;;;;4956658;28;20638;-67
2023/08/16 00:46:23;;;;;;;4.10;3.90;;;;;;;;;;4957628;28;20825;-67
2023/08/16 00:48:51;;;;;;;6.87;4.20;;;;;;;;;;4957208;29;20622;-68
2023/08/16 00:51:21;;;;;;;4.17;3.87;;;;;;;;;;4956052;28;20631;-67
2023/08/16 00:53:50;;;;;;;4.77;4.30;;;;;;;;;;4958272;29;20646;-68
2023/08/16 00:56:19;;;;;;;4.03;3.73;;;;;;;;;;4957214;28;20656;-68
2023/08/16 00:58:47;;;;;;;4.43;4.17;;;;;;;;;;4957750;29;20669;-67
2023/08/16 01:01:15;;;;;;;6.73;4.53;;;;;;;;;;4955932;28;20635;-66
2023/08/16 01:03:46;;;;;;;4.40;3.80;;;;;;;;;;4939869;29;21200;-65
2023/08/16 01:06:14;;;;;;;5.03;4.40;;;;;;;;;;4936128;29;20592;-66
2023/08/16 01:08:44;;;;;;;5.63;4.90;;;;;;;;;;4953947;28;21196;-65
2023/08/16 01:11:15;;;;;;;4.50;4.10;;;;;;;;;;4954950;28;20997;-66
2023/08/16 01:13:56;;;;;;;4.30;3.70;;;;;;;;;;4954047;29;20928;-66
2023/08/16 01:16:25;;;;;;;4.37;3.97;;;;;;;;;;4954016;29;20643;-65
2023/08/16 01:18:54;;;;;;;3.80;3.57;;;;;;;;;;4954346;28;20634;-63
2023/08/16 01:21:23;;;;;;;4.07;3.80;;;;;;;;;;4955414;29;20642;-65
2023/08/16 01:23:59;;;;;;;5.13;3.77;;;;;;;;;;4953457;29;20615;-65
2023/08/16 01:26:32;;;;;;;5.80;4.10;;;;;;;;;;4955780;29;20964;-64
2023/08/16 01:29:02;;;;;;;4.73;4.33;;;;;;;;;;4953419;29;20608;-64
2023/08/16 01:31:30;;;;;;;4.63;4.23;;;;;;;;;;4942407;28;20636;-64
2023/08/16 01:34:00;;;;;;;7.50;4.23;;;;;;;;;;4935549;29;21291;-65
2023/08/16 01:36:29;;;;;;;5.20;4.80;;;;;;;;;;4954982;28;20958;-65
2023/08/16 01:38:58;;;;;;;5.23;4.57;;;;;;;;;;4953268;29;20624;-65
2023/08/16 01:41:30;;;;;;;5.77;4.60;;;;;;;;;;4954695;28;20634;-64
2023/08/16 01:44:01;;;;;;;4.27;3.80;;;;;;;;;;4957958;29;20683;-65
2023/08/16 01:46:30;;;;;;;7.50;5.70;;;;;;;;;;4965944;29;21056;-64
2023/08/16 01:48:59;;;;;;;4.80;4.30;;;;;;;;;;4959932;29;20692;-64
2023/08/16 01:51:28;;;;;;;6.10;4.40;;;;;;;;;;4964996;29;20722;-64
2023/08/16 01:53:56;;;;;;;13.80;5.10;;;;;;;;;;4963787;28;20699;-65
2023/08/16 01:56:24;;;;;;;7.77;4.70;;;;;;;;;;4964344;28;20710;-64
2023/08/16 01:58:53;;;;;;;4.83;4.43;;;;;;;;;;4962907;28;20711;-64
2023/08/16 02:01:25;;;;;;;5.00;4.50;;;;;;;;;;4953845;28;20740;-65
2023/08/16 02:03:53;;;;;;;5.40;4.60;;;;;;;;;;4947939;29;20727;-65
2023/08/16 02:06:22;;;;;;;5.67;5.07;;;;;;;;;;4963873;29;20718;-64
2023/08/16 02:08:52;;;;;;;7.70;4.10;;;;;;;;;;4964520;28;20687;-64
2023/08/16 02:11:21;;;;;;;4.70;4.30;;;;;;;;;;4963612;29;20706;-64
2023/08/16 02:13:49;;;;;;;6.73;4.53;;;;;;;;;;4948182;29;20708;-65
2023/08/16 02:16:18;;;;;;;5.27;4.77;;;;;;;;;;4952163;29;20703;-65
2023/08/16 02:18:47;;;;;;;5.57;5.10;;;;;;;;;;4962908;28;20711;-64
2023/08/16 02:21:15;;;;;;;5.10;4.70;;;;;;;;;;4948334;29;20735;-67
2023/08/16 02:23:43;;;;;;;4.10;3.77;;;;;;;;;;4963681;29;20683;-64
2023/08/16 02:26:12;;;;;;;6.50;4.50;;;;;;;;;;4963317;29;20687;-64
2023/08/16 02:28:40;;;;;;;4.47;4.07;;;;;;;;;;4963390;29;20695;-64
2023/08/16 02:31:08;;;;;;;4.97;4.57;;;;;;;;;;4958460;29;21218;-65
2023/08/16 02:33:37;;;;;;;7.27;4.23;;;;;;;;;;4944408;29;20711;-64
2023/08/16 02:36:06;;;;;;;11.33;4.40;;;;;;;;;;4955799;29;20725;-69
2023/08/16 02:38:35;;;;;;;4.80;3.30;;;;;;;;;;4954252;29;21283;-67
2023/08/16 02:41:03;;;;;;;4.83;4.10;;;;;;;;;;4963900;29;20684;-64
2023/08/16 02:43:31;;;;;;;4.40;4.00;;;;;;;;;;4964433;28;20723;-64
2023/08/16 02:45:59;;;;;;;5.30;4.43;;;;;;;;;;4966971;28;20731;-64
2023/08/16 02:48:27;;;;;;;5.13;4.63;;;;;;;;;;4966535;28;20707;-64
2023/08/16 02:50:56;;;;;;;4.17;3.77;;;;;;;;;;4966692;28;20734;-64
2023/08/16 02:53:25;;;;;;;4.20;3.80;;;;;;;;;;4967373;29;20683;-64
2023/08/16 02:55:54;;;;;;;4.53;4.23;;;;;;;;;;4966433;28;20722;-63
2023/08/16 02:58:22;;;;;;;4.13;3.90;;;;;;;;;;4967098;29;21017;-64
2023/08/16 03:00:50;;;;;;;4.40;4.00;;;;;;;;;;4967067;29;20661;-64
2023/08/16 03:03:19;;;;;;;4.63;4.20;;;;;;;;;;4964615;29;20733;-65
2023/08/16 03:05:47;;;;;;;5.13;4.73;;;;;;;;;;4965372;29;20710;-65
2023/08/16 03:08:15;;;;;;;4.80;4.50;;;;;;;;;;4966704;28;21290;-65
2023/08/16 03:10:45;;;;;;;5.00;4.50;;;;;;;;;;4965704;29;20707;-64
2023/08/16 03:13:13;;;;;;;4.83;4.50;;;;;;;;;;4966956;29;21237;-65
2023/08/16 03:15:41;;;;;;;4.17;3.93;;;;;;;;;;4966171;28;21330;-65
2023/08/16 03:18:09;;;;;;;8.00;4.20;;;;;;;;;;4967453;29;20742;-64
2023/08/16 03:20:39;;;;;;;4.93;4.53;;;;;;;;;;4964961;28;20699;-65
2023/08/16 03:23:10;;;;;;;5.50;5.00;;;;;;;;;;4965916;29;20726;-64
2023/08/16 03:25:38;;;;;;;7.97;4.30;;;;;;;;;;4949230;29;20666;-64
2023/08/16 03:28:08;;;;;;;6.73;4.60;;;;;;;;;;4966238;29;20706;-65
2023/08/16 03:30:36;;;;;;;4.97;4.67;;;;;;;;;;4966417;29;20686;-65
2023/08/16 03:33:06;;;;;;;5.50;5.00;;;;;;;;;;4947854;28;20663;-69
2023/08/16 03:35:36;;;;;;;7.07;4.73;;;;;;;;;;4936026;29;20642;-66
2023/08/16 03:38:04;;;;;;;5.53;5.00;;;;;;;;;;4965217;28;20739;-63
2023/08/16 03:40:32;;;;;;;8.73;5.40;;;;;;;;;;4965481;28;20702;-64
2023/08/16 03:43:01;;;;;;;5.20;4.90;;;;;;;;;;4965946;28;20717;-64
2023/08/16 03:45:30;;;;;;;5.83;4.90;;;;;;;;;;4966021;28;20679;-64
2023/08/16 03:47:59;;;;;;;5.03;4.63;;;;;;;;;;4958822;29;20716;-64
2023/08/16 03:50:27;;;;;;;6.50;5.90;;;;;;;;;;4946779;29;20691;-64
2023/08/16 03:52:55;;;;;;;5.90;5.50;;;;;;;;;;4946345;29;20688;-66
2023/08/16 03:55:23;;;;;;;7.23;5.80;;;;;;;;;;4946155;29;20720;-65
2023/08/16 03:57:51;;;;;;;5.50;5.10;;;;;;;;;;4947653;29;21072;-64
2023/08/16 04:00:20;;;;;;;6.30;5.90;;;;;;;;;;4964832;29;20722;-64
2023/08/16 04:02:51;;;;;;;8.00;7.30;;;;;;;;;;4959987;28;20717;-64
2023/08/16 04:05:21;;;;;;;7.20;6.23;;;;;;;;;;4946694;29;20651;-66
2023/08/16 04:07:49;;;;;;;7.10;6.50;;;;;;;;;;4966427;28;20687;-65
2023/08/16 04:10:18;;;;;;;7.10;6.40;;;;;;;;;;4948649;29;20707;-64
2023/08/16 04:12:46;;;;;;;6.80;6.10;;;;;;;;;;4964809;29;21053;-64
2023/08/16 04:15:15;;;;;;;8.43;7.63;;;;;;;;;;4964807;28;20731;-64
2023/08/16 04:17:43;;;;;;;7.53;6.83;;;;;;;;;;4965268;28;20711;-64
2023/08/16 04:20:13;;;;;;;8.87;8.07;;;;;;;;;;4964057;29;21067;-65
2023/08/16 04:22:41;;;;;;;8.00;7.40;;;;;;;;;;4966184;28;20650;-64
2023/08/16 04:25:11;;;;;;;7.87;7.23;;;;;;;;;;4965327;28;20702;-64
2023/08/16 04:27:40;;;;;;;7.83;6.37;;;;;;;;;;4965285;29;20719;-64
2023/08/16 04:30:08;;;;;;;6.67;6.17;;;;;;;;;;4963635;28;20695;-64
2023/08/16 04:32:37;;;;;;;18.83;6.57;;;;;;;;;;4965769;28;20698;-65
2023/08/16 04:35:05;;;;;;;7.00;6.40;;;;;;;;;;4963895;28;20711;-68
2023/08/16 04:37:36;;;;;;;6.90;6.30;;;;;;;;;;4949116;29;20686;-68
2023/08/16 04:40:05;;;;;;;10.43;7.00;;;;;;;;;;4958659;29;21094;-64
2023/08/16 04:42:34;;;;;;;10.87;7.30;;;;;;;;;;4965793;28;20710;-64
2023/08/16 04:45:03;;;;;;;8.33;7.53;;;;;;;;;;4965493;29;20692;-64
2023/08/16 04:47:33;;;;;;;8.00;7.40;;;;;;;;;;4962655;28;20792;-64
2023/08/16 04:50:03;;;;;;;9.57;8.57;;;;;;;;;;4962685;29;21063;-64
2023/08/16 04:52:31;;;;;;;13.07;9.30;;;;;;;;;;4958256;29;20707;-67
2023/08/16 04:55:01;;;;;;;9.87;9.03;;;;;;;;;;4946009;29;20712;-63
2023/08/16 04:57:29;;;;;;;8.70;8.00;;;;;;;;;;4963522;29;20694;-64
2023/08/16 04:59:57;;;;;;;11.90;10.80;;;;;;;;;;4961013;29;20738;-64
2023/08/16 05:02:27;;;;;;;10.67;9.67;;;;;;;;;;4959963;28;20773;-64
2023/08/16 05:04:55;;;;;;;16.47;11.50;;;;;;;;;;4944476;29;20689;-65
2023/08/16 05:07:24;;;;;;;14.43;10.20;;;;;;;;;;4962211;28;21325;-64
2023/08/16 05:09:52;;;;;;;12.63;11.53;;;;;;;;;;4965140;28;20671;-64
2023/08/16 05:12:21;;;;;;;12.40;11.30;;;;;;;;;;4964744;29;21073;-64
2023/08/16 05:14:49;;;;;;;13.30;12.10;;;;;;;;;;4965319;29;20715;-65
2023/08/16 05:17:18;;;;;;;12.97;10.40;;;;;;;;;;4962990;29;20691;-64
2023/08/16 05:19:46;;;;;;;13.23;12.03;;;;;;;;;;4956282;28;21297;-63
2023/08/16 05:22:14;;;;;;;13.20;11.90;;;;;;;;;;4966537;29;20647;-64
2023/08/16 05:24:43;;;;;;;13.00;11.80;;;;;;;;;;4964557;29;20719;-64
2023/08/16 05:27:12;;;;;;;12.50;11.40;;;;;;;;;;4953636;29;20703;-66
2023/08/16 05:29:42;;;;;;;12.33;11.13;;;;;;;;;;4963296;29;20707;-65
2023/08/16 05:32:11;;;;;;;12.10;10.90;;;;;;;;;;4964670;29;20680;-64
2023/08/16 05:34:39;;;;;;;14.13;11.37;;;;;;;;;;4963618;29;20710;-64
2023/08/16 05:37:09;;;;;;;12.70;11.07;;;;;;;;;;4964324;29;20692;-67
2023/08/16 05:39:37;;;;;;;12.27;11.07;;;;;;;;;;4964245;28;20722;-65
2023/08/16 05:42:06;;;;;;;11.50;10.40;;;;;;;;;;4955411;29;20711;-66
2023/08/16 05:44:34;;;;;;;11.07;9.87;;;;;;;;;;4964047;29;21241;-64
2023/08/16 05:47:04;;;;;;;13.07;11.23;;;;;;;;;;4961483;29;20698;-65
2023/08/16 05:49:32;;;;;;;12.53;10.97;;;;;;;;;;4962639;29;20659;-64
2023/08/16 05:52:00;;;;;;;12.17;10.97;;;;;;;;;;4963468;29;21197;-65
2023/08/16 05:54:28;;;;;;;12.53;11.37;;;;;;;;;;4963097;28;20791;-64
2023/08/16 05:56:56;;;;;;;12.57;11.43;;;;;;;;;;4962602;29;20691;-64
2023/08/16 05:59:24;;;;;;;14.00;12.70;;;;;;;;;;4960837;29;20750;-65
2023/08/16 06:01:53;;;;;;;14.10;12.63;;;;;;;;;;4960957;28;20763;-64
2023/08/16 06:04:22;;;;;;;14.37;13.07;;;;;;;;;;4945932;29;21066;-64
2023/08/16 06:06:51;;;;;;;14.50;12.90;;;;;;;;;;4956749;28;20734;-64
2023/08/16 06:09:19;;;;;;;14.50;12.77;;;;;;;;;;4951234;29;20751;-64
2023/08/16 06:11:47;;;;;;;15.33;13.93;;;;;;;;;;4952540;29;20685;-64
2023/08/16 06:14:15;;;;;;;13.73;12.37;;;;;;;;;;4950960;28;20670;-64
2023/08/16 06:16:45;;;;;;;14.47;13.07;;;;;;;;;;4954201;28;20636;-66
2023/08/16 06:19:15;;;;;;;14.00;12.80;;;;;;;;;;4954901;29;20750;-64
2023/08/16 06:21:45;;;;;;;14.30;12.33;;;;;;;;;;4957604;29;21149;-65
2023/08/16 06:24:13;;;;;;;14.60;13.30;;;;;;;;;;4960891;28;20699;-64
2023/08/16 06:26:41;;;;;;;13.73;12.43;;;;;;;;;;4966804;28;20718;-65
2023/08/16 06:29:09;;;;;;;13.70;12.40;;;;;;;;;;4965806;29;21082;-64
2023/08/16 06:31:37;;;;;;;14.40;13.00;;;;;;;;;;4966676;28;20710;-65
2023/08/16 06:34:06;;;;;;;19.50;13.43;;;;;;;;;;4966969;28;20706;-65
2023/08/16 06:36:34;;;;;;;15.30;12.83;;;;;;;;;;4966533;28;20687;-64
2023/08/16 06:39:04;;;;;;;16.00;14.60;;;;;;;;;;4967260;28;20754;-64
2023/08/16 06:41:32;;;;;;;17.00;15.20;;;;;;;;;;4967135;28;20630;-64
2023/08/16 06:44:01;;;;;;;19.33;16.20;;;;;;;;;;4965635;29;20723;-64
2023/08/16 06:46:29;;;;;;;17.73;15.83;;;;;;;;;;4963998;29;20802;-65
2023/08/16 06:48:57;;;;;;;18.23;16.30;;;;;;;;;;4966142;28;20615;-64
2023/08/16 06:51:25;;;;;;;19.73;17.83;;;;;;;;;;4965277;29;20730;-65
2023/08/16 06:53:54;;;;;;;19.83;17.97;;;;;;;;;;4967397;28;20710;-64
2023/08/16 06:56:23;;;;;;;19.20;17.07;;;;;;;;;;4965057;29;21103;-63
2023/08/16 06:58:52;;;;;;;25.43;19.13;;;;;;;;;;4965887;28;20718;-64
2023/08/16 07:01:20;;;;;;;26.20;18.97;;;;;;;;;;4961405;28;21061;-64
2023/08/16 07:03:49;;;;;;;22.10;19.70;;;;;;;;;;4958794;29;20722;-65
2023/08/16 07:06:18;;;;;;;22.83;20.27;;;;;;;;;;4964038;28;20735;-64
2023/08/16 07:08:46;;;;;;;21.37;19.30;;;;;;;;;;4959473;29;20715;-65
2023/08/16 07:11:14;;;;;;;21.33;19.30;;;;;;;;;;4958437;29;20703;-64
2023/08/16 07:13:44;;;;;;;20.73;18.60;;;;;;;;;;4965888;28;20734;-64
2023/08/16 07:16:12;;;;;;;20.40;16.67;;;;;;;;;;4961230;28;20687;-64
2023/08/16 07:18:42;;;;;;;19.30;17.40;;;;;;;;;;4964825;29;20702;-63
2023/08/16 07:21:21;;;;;;;19.10;17.40;;;;;;;;;;4960242;28;20666;-64
2023/08/16 07:24:01;;;;;;;19.17;17.30;;;;;;;;;;4954662;29;20639;-68
2023/08/16 07:26:29;;;;;;;20.90;18.70;;;;;;;;;;4956101;29;20995;-68
2023/08/16 07:29:02;;;;;;;19.97;16.97;;;;;;;;;;4949837;28;20631;-67
2023/08/16 07:31:30;;;;;;;16.17;14.50;;;;;;;;;;4945139;29;20653;-67
2023/08/16 07:33:58;;;;;;;15.73;14.13;;;;;;;;;;4948150;29;20630;-67
2023/08/16 07:36:27;;;;;;;17.10;15.40;;;;;;;;;;4951353;29;20989;-67
2023/08/16 07:38:56;;;;;;;14.60;13.30;;;;;;;;;;4949996;28;20623;-68
2023/08/16 07:41:24;;;;;;;21.53;14.07;;;;;;;;;;4956013;29;21225;-68
2023/08/16 07:43:53;;;;;;;14.27;12.77;;;;;;;;;;4955948;28;20619;-66
2023/08/16 07:46:22;;;;;;;13.50;12.10;;;;;;;;;;4942004;28;20625;-68
2023/08/16 07:48:51;;;;;;;13.30;12.10;;;;;;;;;;4938018;29;20676;-67
2023/08/16 07:51:19;;;;;;;14.13;12.90;;;;;;;;;;4941561;29;20622;-67
2023/08/16 07:53:48;;;;;;;15.20;12.10;;;;;;;;;;4956783;28;20619;-67
2023/08/16 07:56:17;;;;;;;15.23;8.50;;;;;;;;;;4956314;29;20639;-68
2023/08/16 07:58:45;;;;;;;9.87;8.97;;;;;;;;;;4956061;28;20669;-67
2023/08/16 08:01:13;;;;;;;10.10;9.10;;;;;;;;;;4953209;28;20674;-67
2023/08/16 08:03:43;;;;;;;12.50;8.30;;;;;;;;;;4959680;28;20631;-67
2023/08/16 08:06:11;;;;;;;9.07;8.17;;;;;;;;;;4950783;28;20655;-67
2023/08/16 08:08:39;;;;;;;9.23;8.50;;;;;;;;;;4957185;28;20682;-67
2023/08/16 08:11:08;;;;;;;7.97;7.30;;;;;;;;;;4955612;28;20628;-68
2023/08/16 08:17:21;;;;;;;7.20;6.50;;;;;;;;;;4954517;28;20642;-66
2023/08/16 08:19:51;;;;;;;7.47;6.87;;;;;;;;;;4953348;28;21229;-67
2023/08/16 08:22:19;;;;;;;10.93;6.10;;;;;;;;;;4946433;28;20619;-67
2023/08/16 08:24:47;;;;;;;6.97;6.20;;;;;;;;;;4957872;28;20637;-66
2023/08/16 08:27:15;;;;;;;6.50;5.90;;;;;;;;;;4958195;28;20718;-67
2023/08/16 08:29:45;;;;;;;6.87;6.17;;;;;;;;;;4956126;29;20638;-67
2023/08/16 08:32:13;;;;;;;9.10;7.87;;;;;;;;;;4957688;29;21098;-67
2023/08/16 08:34:41;;;;;;;5.07;4.67;;;;;;;;;;4957298;28;20623;-67
2023/08/16 08:37:11;;;;;;;5.90;5.20;;;;;;;;;;4956493;28;20722;-67
2023/08/16 08:39:39;;;;;;;8.63;5.90;;;;;;;;;;4956008;28;20640;-67
2023/08/16 08:42:10;;;;;;;5.80;5.30;;;;;;;;;;4955759;28;20630;-67
2023/08/16 08:44:39;;;;;;;5.73;5.23;;;;;;;;;;4956520;28;20615;-67
2023/08/16 08:47:09;;;;;;;5.23;4.83;;;;;;;;;;4956651;28;20796;-67
2023/08/16 08:49:37;;;;;;;6.20;5.60;;;;;;;;;;4949534;28;20628;-67
2023/08/16 08:52:06;;;;;;;5.00;4.70;;;;;;;;;;4950697;28;20651;-67
2023/08/16 08:54:36;;;;;;;5.70;4.70;;;;;;;;;;4951441;29;20628;-67
2023/08/16 08:57:06;;;;;;;4.27;3.97;;;;;;;;;;4941863;29;20788;-67
2023/08/16 08:59:35;;;;;;;5.37;3.87;;;;;;;;;;4956002;29;21550;-67
2023/08/16 09:02:04;;;;;;;3.83;3.57;;;;;;;;;;4950341;28;20672;-67
2023/08/16 09:04:33;;;;;;;9.83;8.37;;;;;;;;;;4945403;29;21039;-67
2023/08/16 09:07:04;;;;;;;7.83;4.20;;;;;;;;;;4948580;28;20639;-67
2023/08/16 09:09:33;;;;;;;3.50;3.30;;;;;;;;;;4946216;29;20648;-67
2023/08/16 09:12:03;;;;;;;4.30;3.90;;;;;;;;;;4948001;29;20630;-67
2023/08/16 09:14:31;;;;;;;3.57;3.37;;;;;;;;;;4945521;28;20638;-67
2023/08/16 09:16:59;;;;;;;4.83;4.23;;;;;;;;;;4948558;28;21034;-67
2023/08/16 09:19:27;;;;;;;4.50;4.20;;;;;;;;;;4944843;29;20632;-67
2023/08/16 09:21:57;;;;;;;6.87;3.93;;;;;;;;;;4952407;29;20719;-67
2023/08/16 09:24:26;;;;;;;4.07;3.73;;;;;;;;;;4952241;28;20607;-67
2023/08/16 09:26:54;;;;;;;3.70;3.50;;;;;;;;;;4951158;29;20639;-67
2023/08/16 09:29:24;;;;;;;7.67;3.70;;;;;;;;;;4955639;28;20603;-67
2023/08/16 09:31:52;;;;;;;7.10;3.90;;;;;;;;;;4956067;28;20624;-67
2023/08/16 09:34:21;;;;;;;4.33;3.97;;;;;;;;;;4956085;29;20687;-67
2023/08/16 09:36:51;;;;;;;4.13;3.83;;;;;;;;;;4956144;29;20617;-67
2023/08/16 09:39:19;;;;;;;5.90;4.10;;;;;;;;;;4955307;28;20590;-67
2023/08/16 09:41:49;;;;;;;7.90;4.80;;;;;;;;;;4965298;28;20662;-67
2023/08/16 09:44:17;;;;;;;5.37;4.90;;;;;;;;;;4954778;28;20619;-67
2023/08/16 09:46:47;;;;;;;5.50;5.00;;;;;;;;;;4954368;29;20959;-67
2023/08/16 09:49:15;;;;;;;4.83;4.37;;;;;;;;;;4953808;29;20970;-68
2023/08/16 09:51:43;;;;;;;4.70;4.40;;;;;;;;;;4954651;28;20626;-68
2023/08/16 09:54:12;;;;;;;8.43;4.70;;;;;;;;;;4952843;29;20619;-68
2023/08/16 09:56:41;;;;;;;5.03;4.73;;;;;;;;;;4953278;29;20941;-68
2023/08/16 09:59:10;;;;;;;5.20;4.90;;;;;;;;;;4954147;28;20635;-68
2023/08/16 10:01:39;;;;;;;4.70;4.33;;;;;;;;;;4950900;28;20683;-68
2023/08/16 10:04:09;;;;;;;5.57;5.00;;;;;;;;;;4947039;29;20630;-67
2023/08/16 10:06:38;;;;;;;5.20;4.77;;;;;;;;;;4952839;29;20620;-68
2023/08/16 10:09:09;;;;;;;5.20;4.70;;;;;;;;;;4955508;28;20632;-67
2023/08/16 10:11:38;;;;;;;5.13;4.80;;;;;;;;;;4952712;29;20666;-67
2023/08/16 10:14:07;;;;;;;6.30;5.80;;;;;;;;;;4960482;28;21204;-68
2023/08/16 10:16:36;;;;;;;4.87;4.67;;;;;;;;;;4960338;28;20635;-68
2023/08/16 10:19:04;;;;;;;4.97;4.73;;;;;;;;;;4955645;28;20636;-68
2023/08/16 10:21:35;;;;;;;5.23;4.87;;;;;;;;;;4954653;28;20667;-68
2023/08/16 10:24:04;;;;;;;5.03;4.63;;;;;;;;;;4955226;28;20661;-68
2023/08/16 10:26:34;;;;;;;5.53;4.30;;;;;;;;;;4954632;28;21171;-68
2023/08/16 10:29:09;;;;;;;4.80;4.20;;;;;;;;;;4955264;28;20695;-68
2023/08/16 10:31:39;;;;;;;7.83;4.83;;;;;;;;;;4955247;28;20629;-68
2023/08/16 10:34:09;;;;;;;5.03;4.73;;;;;;;;;;4953285;29;20665;-67
2023/08/16 10:36:39;;;;;;;5.23;4.93;;;;;;;;;;4953622;28;20607;-67
2023/08/16 10:39:08;;;;;;;4.97;4.67;;;;;;;;;;4953711;28;20701;-67
2023/08/16 10:41:43;;;;;;;8.33;5.80;;;;;;;;;;4953419;28;20667;-67
2023/08/16 10:44:12;;;;;;;5.03;4.77;;;;;;;;;;4954288;28;20996;-67
2023/08/16 10:46:45;;;;;;;5.87;4.97;;;;;;;;;;4954152;28;20638;-68
2023/08/16 10:49:13;;;;;;;5.33;4.70;;;;;;;;;;4953776;28;20614;-67
2023/08/16 10:51:46;;;;;;;5.73;5.33;;;;;;;;;;4954649;28;20628;-67
2023/08/16 10:54:15;;;;;;;5.70;5.40;;;;;;;;;;4952947;29;20632;-67
2023/08/16 10:56:47;;;;;;;5.07;4.87;;;;;;;;;;4953592;29;20647;-67
2023/08/16 10:59:16;;;;;;;7.03;5.70;;;;;;;;;;4949476;28;20607;-68
2023/08/16 11:01:47;;;;;;;6.00;5.60;;;;;;;;;;4949859;28;21047;-67
2023/08/16 11:04:16;;;;;;;5.80;5.50;;;;;;;;;;4948498;28;20699;-67
2023/08/16 11:06:46;;;;;;;6.03;5.73;;;;;;;;;;4945863;29;20665;-67
2023/08/16 11:09:14;;;;;;;6.70;6.00;;;;;;;;;;4960912;28;20638;-67
2023/08/16 11:11:45;;;;;;;6.27;5.10;;;;;;;;;;4953089;28;20698;-67
2023/08/16 11:14:14;;;;;;;6.17;5.67;;;;;;;;;;4956948;29;20586;-67
2023/08/16 11:16:42;;;;;;;6.40;5.80;;;;;;;;;;4955212;29;20621;-67
2023/08/16 11:19:11;;;;;;;7.60;7.07;;;;;;;;;;4956889;29;20607;-67
2023/08/16 11:21:44;;;;;;;5.97;5.67;;;;;;;;;;4955483;29;20673;-67
2023/08/16 11:24:13;;;;;;;7.60;6.90;;;;;;;;;;4956700;29;20610;-67
2023/08/16 11:26:42;;;;;;;7.40;6.90;;;;;;;;;;4955187;29;20631;-67
2023/08/16 11:29:10;;;;;;;7.77;7.27;;;;;;;;;;4956736;29;20626;-67
2023/08/16 11:31:38;;;;;;;9.13;8.53;;;;;;;;;;4955528;29;20624;-67
2023/08/16 11:37:43;;;;;;;7.43;7.13;;;;;;;;;;4935598;29;20596;-67
2023/08/16 11:40:13;;;;;;;7.80;7.30;;;;;;;;;;4938293;29;20628;-67
2023/08/16 11:42:41;;;;;;;9.10;8.60;;;;;;;;;;4955346;29;20705;-67
2023/08/16 11:45:19;;;;;;;9.53;8.93;;;;;;;;;;4955648;28;20638;-68
2023/08/16 11:47:51;;;;;;;10.60;9.40;;;;;;;;;;4950967;29;20642;-68
2023/08/16 11:50:19;;;;;;;9.40;9.00;;;;;;;;;;4955457;28;20976;-67
2023/08/16 11:52:56;;;;;;;11.20;10.17;;;;;;;;;;4944920;29;20631;-67
2023/08/16 11:55:29;;;;;;;11.20;10.30;;;;;;;;;;4945791;28;20615;-67
2023/08/16 11:58:03;;;;;;;9.80;9.30;;;;;;;;;;4945794;28;20605;-67
2023/08/16 12:00:32;;;;;;;11.43;10.73;;;;;;;;;;4937082;29;20594;-67
2023/08/16 12:03:02;;;;;;;10.60;9.70;;;;;;;;;;4933324;29;20678;-67
2023/08/16 12:05:35;;;;;;;10.90;10.27;;;;;;;;;;4951056;29;20604;-67
2023/08/16 12:08:05;;;;;;;10.50;9.90;;;;;;;;;;4954977;29;20622;-67
2023/08/16 12:10:34;;;;;;;10.80;10.10;;;;;;;;;;4956535;29;20615;-67
2023/08/16 12:13:11;;;;;;;10.93;9.97;;;;;;;;;;4957122;28;20981;-67
2023/08/16 12:15:40;;;;;;;11.00;10.40;;;;;;;;;;4963408;28;20603;-68
2023/08/16 12:18:09;;;;;;;10.90;10.30;;;;;;;;;;4938585;29;21046;-67
2023/08/16 15:02:57;;;;;;;11.00;10.50;;;;;;;;;;5821819;23;20561;-64
2023/08/16 15:05:26;;;;;;;11.83;11.00;;;;;;;;;;4888197;29;20780;-65
2023/08/16 15:07:55;;;;;;;10.90;10.30;;;;;;;;;;4893598;29;20663;-68
2023/08/16 15:10:23;;;;;;;12.40;11.30;;;;;;;;;;4899944;29;20675;-66
2023/08/16 15:12:51;;;;;;;12.47;11.47;;;;;;;;;;4882811;29;21225;-66
2023/08/16 15:15:22;;;;;;;12.17;10.80;;;;;;;;;;4882233;29;20630;-64
2023/08/16 15:17:50;;;;;;;10.67;9.77;;;;;;;;;;4882597;29;20593;-65
2023/08/16 15:20:20;;;;;;;10.70;10.17;;;;;;;;;;4881599;29;20627;-64
2023/08/16 15:22:48;;;;;;;10.73;9.93;;;;;;;;;;4881856;29;20669;-64
2023/08/16 15:25:16;;;;;;;10.57;9.87;;;;;;;;;;4882299;29;20631;-65
2023/08/16 15:27:45;;;;;;;9.90;9.20;;;;;;;;;;4882612;29;20630;-64
2023/08/16 15:30:13;;;;;;;10.40;9.53;;;;;;;;;;4865882;29;20695;-66
2023/08/16 15:32:41;;;;;;;10.63;10.03;;;;;;;;;;4880115;29;20635;-66
2023/08/16 15:35:10;;;;;;;9.70;9.20;;;;;;;;;;4882134;29;20663;-65
2023/08/16 15:37:40;;;;;;;10.77;9.83;;;;;;;;;;4865071;29;20619;-64
2023/08/16 15:40:09;;;;;;;10.57;9.77;;;;;;;;;;4865295;29;20619;-64
2023/08/16 15:42:38;;;;;;;9.97;9.43;;;;;;;;;;4880142;29;20679;-64
2023/08/16 15:45:07;;;;;;;11.33;10.10;;;;;;;;;;4881354;29;20633;-66
2023/08/16 15:47:35;;;;;;;10.83;9.90;;;;;;;;;;4879764;29;20631;-66
2023/08/16 15:50:07;;;;;;;10.77;9.40;;;;;;;;;;4864080;29;20631;-65
2023/08/16 15:52:36;;;;;;;14.10;9.57;;;;;;;;;;4881019;29;20617;-67
2023/08/16 15:55:06;;;;;;;18.87;10.80;;;;;;;;;;4881855;29;20635;-65
2023/08/16 15:57:34;;;;;;;10.93;9.67;;;;;;;;;;4880861;29;20609;-66
2023/08/16 16:00:07;;;;;;;14.83;9.10;;;;;;;;;;4881925;29;20622;-66
2023/08/16 16:02:42;;;;;;;9.73;9.23;;;;;;;;;;4878162;29;20734;-66
2023/08/16 16:05:10;;;;;;;8.93;8.53;;;;;;;;;;4880270;29;20725;-66
2023/08/16 16:07:38;;;;;;;8.33;8.00;;;;;;;;;;4864524;29;20629;-65
2023/08/16 16:10:08;;;;;;;10.00;9.30;;;;;;;;;;4882229;29;20974;-65
2023/08/16 16:12:37;;;;;;;9.20;8.70;;;;;;;;;;4865165;29;20592;-66
2023/08/16 16:15:05;;;;;;;8.97;8.43;;;;;;;;;;4881423;29;20623;-66
2023/08/16 16:17:34;;;;;;;9.10;8.70;;;;;;;;;;4880797;29;20643;-65
2023/08/16 16:20:02;;;;;;;8.40;8.00;;;;;;;;;;4880839;29;21292;-66
2023/08/16 16:22:31;;;;;;;8.40;8.00;;;;;;;;;;4880966;29;21028;-66
2023/08/16 16:24:59;;;;;;;9.20;8.37;;;;;;;;;;4881732;29;20661;-66
2023/08/16 16:27:28;;;;;;;10.17;9.40;;;;;;;;;;4865601;29;20627;-66
2023/08/16 16:29:57;;;;;;;9.17;8.50;;;;;;;;;;4881636;29;20634;-66
2023/08/16 16:32:25;;;;;;;10.50;9.90;;;;;;;;;;4881917;29;20623;-66
2023/08/16 16:34:53;;;;;;;10.50;9.80;;;;;;;;;;4882320;29;20702;-66
2023/08/16 16:37:22;;;;;;;9.53;8.93;;;;;;;;;;4882649;29;20638;-66
2023/08/16 16:39:50;;;;;;;10.87;9.87;;;;;;;;;;4881328;29;20622;-68
2023/08/16 16:42:18;;;;;;;10.33;9.73;;;;;;;;;;4881288;29;20631;-66
2023/08/16 16:44:48;;;;;;;9.90;9.40;;;;;;;;;;4880643;29;21247;-65
2023/08/16 16:47:16;;;;;;;10.13;9.63;;;;;;;;;;4879443;29;20631;-65
2023/08/16 16:49:45;;;;;;;10.50;9.70;;;;;;;;;;4866655;29;20693;-65
2023/08/16 16:52:13;;;;;;;9.43;8.83;;;;;;;;;;4879982;29;20627;-65
2023/08/16 16:54:41;;;;;;;11.50;10.70;;;;;;;;;;4861487;29;20623;-65
2023/08/16 16:57:09;;;;;;;10.40;9.60;;;;;;;;;;4880214;29;20630;-65
2023/08/16 16:59:38;;;;;;;10.50;9.70;;;;;;;;;;4879877;29;20637;-65
2023/08/16 17:02:08;;;;;;;9.33;8.93;;;;;;;;;;4862971;29;20623;-65
2023/08/16 17:04:36;;;;;;;10.63;8.40;;;;;;;;;;4878673;29;20667;-66
2023/08/16 17:07:04;;;;;;;9.07;8.47;;;;;;;;;;4875357;29;20631;-65
2023/08/16 17:09:32;;;;;;;9.33;8.73;;;;;;;;;;4880357;29;20692;-65
2023/08/16 17:12:01;;;;;;;8.83;7.93;;;;;;;;;;4880082;29;20619;-65
2023/08/16 17:14:29;;;;;;;9.10;8.33;;;;;;;;;;4880520;29;20984;-65
2023/08/16 17:16:59;;;;;;;8.73;8.20;;;;;;;;;;4879762;29;20634;-65
2023/08/16 17:19:31;;;;;;;8.00;7.40;;;;;;;;;;4880700;29;21256;-65
2023/08/16 17:21:59;;;;;;;7.57;7.17;;;;;;;;;;4862863;29;20610;-65
2023/08/16 17:24:27;;;;;;;6.90;6.43;;;;;;;;;;4879620;29;20663;-66
2023/08/16 17:26:55;;;;;;;7.33;6.90;;;;;;;;;;4879386;29;20639;-65
2023/08/16 17:29:23;;;;;;;6.73;6.37;;;;;;;;;;4879415;29;20623;-66
2023/08/16 17:31:52;;;;;;;7.83;7.23;;;;;;;;;;4864466;29;21190;-66
2023/08/16 17:34:20;;;;;;;7.33;6.83;;;;;;;;;;4866701;29;20961;-65
2023/08/16 17:36:49;;;;;;;7.30;6.63;;;;;;;;;;4879817;29;20658;-65